Westminster, California
Current Conditions -  °F | °C
As of 1:58 AM on Friday 21 Nov 2014 (Local Time) from KSLI Reporting Station
Few Clouds Few Clouds  
Wind Chill: 15°   Ceiling: Unl
Heat Index: 15°   Visibility: 10mi
Dew Point: 12°   Wind: 3mph
Humidity: 86%   Direction: 270°W
Pressure: 29.95"   Gusts: NA
Location:  33.76°N, 117.98°W
Report Text: KSLI 210958Z AUTO 27003KT 10SM FEW100 15/12 A2995 RMK AO2 SLP145 T01450122
Loading
Personal Weather Stations






























Interactive Weather Map New forecast layout! Learn more

10-Day Weather Forecast

Advertisements
Track Severe Weather on mobile